sensor_id;sensor_type;location;lat;lon;timestamp;temperature;humidity
21425;DHT22;10873;51.132;16.848;2023-05-07T00:00:52;25.60;52.10
21425;DHT22;10873;51.132;16.848;2023-05-07T00:03:22;25.60;52.10
21425;DHT22;10873;51.132;16.848;2023-05-07T00:05:49;25.60;52.20
21425;DHT22;10873;51.132;16.848;2023-05-07T00:08:14;25.60;52.10
21425;DHT22;10873;51.132;16.848;2023-05-07T00:10:41;25.60;52.10
21425;DHT22;10873;51.132;16.848;2023-05-07T00:13:07;25.60;52.10
21425;DHT22;10873;51.132;16.848;2023-05-07T00:15:33;25.60;52.20
21425;DHT22;10873;51.132;16.848;2023-05-07T00:17:59;25.60;52.20
21425;DHT22;10873;51.132;16.848;2023-05-07T00:20:27;25.60;52.20
21425;DHT22;10873;51.132;16.848;2023-05-07T00:22:53;25.60;52.20
21425;DHT22;10873;51.132;16.848;2023-05-07T00:25:19;25.60;52.20
21425;DHT22;10873;51.132;16.848;2023-05-07T00:27:45;25.60;52.20
21425;DHT22;10873;51.132;16.848;2023-05-07T00:30:12;25.50;52.10
21425;DHT22;10873;51.132;16.848;2023-05-07T00:32:38;25.60;52.10
21425;DHT22;10873;51.132;16.848;2023-05-07T00:35:05;25.60;52.10
21425;DHT22;10873;51.132;16.848;2023-05-07T00:37:33;25.50;52.00
21425;DHT22;10873;51.132;16.848;2023-05-07T00:39:59;25.50;52.10
21425;DHT22;10873;51.132;16.848;2023-05-07T00:42:25;25.50;52.00
21425;DHT22;10873;51.132;16.848;2023-05-07T00:44:51;25.50;52.00
21425;DHT22;10873;51.132;16.848;2023-05-07T00:47:17;25.50;52.00
21425;DHT22;10873;51.132;16.848;2023-05-07T00:49:44;25.50;52.10
21425;DHT22;10873;51.132;16.848;2023-05-07T00:52:13;25.50;52.00
21425;DHT22;10873;51.132;16.848;2023-05-07T00:54:42;25.50;52.00
21425;DHT22;10873;51.132;16.848;2023-05-07T00:57:09;25.40;52.00
21425;DHT22;10873;51.132;16.848;2023-05-07T00:59:35;25.40;52.00
21425;DHT22;10873;51.132;16.848;2023-05-07T01:02:01;25.40;52.10
21425;DHT22;10873;51.132;16.848;2023-05-07T01:04:27;25.40;52.10
21425;DHT22;10873;51.132;16.848;2023-05-07T01:06:55;25.40;52.20
21425;DHT22;10873;51.132;16.848;2023-05-07T01:09:22;25.40;52.10
21425;DHT22;10873;51.132;16.848;2023-05-07T01:11:50;25.40;52.10
21425;DHT22;10873;51.132;16.848;2023-05-07T01:14:17;25.30;52.10
21425;DHT22;10873;51.132;16.848;2023-05-07T01:16:44;25.30;52.00
21425;DHT22;10873;51.132;16.848;2023-05-07T01:19:11;25.30;52.00
21425;DHT22;10873;51.132;16.848;2023-05-07T01:21:42;25.30;52.10
21425;DHT22;10873;51.132;16.848;2023-05-07T01:24:12;25.30;52.10
21425;DHT22;10873;51.132;16.848;2023-05-07T01:26:38;25.30;52.10
21425;DHT22;10873;51.132;16.848;2023-05-07T01:29:05;25.20;52.00
21425;DHT22;10873;51.132;16.848;2023-05-07T01:31:32;25.20;52.00
21425;DHT22;10873;51.132;16.848;2023-05-07T01:33:59;25.20;52.10
21425;DHT22;10873;51.132;16.848;2023-05-07T01:36:27;25.20;52.10
21425;DHT22;10873;51.132;16.848;2023-05-07T01:38:55;25.20;52.10
21425;DHT22;10873;51.132;16.848;2023-05-07T01:41:24;25.20;52.20
21425;DHT22;10873;51.132;16.848;2023-05-07T01:43:52;25.20;52.20
21425;DHT22;10873;51.132;16.848;2023-05-07T01:46:18;25.20;52.80
21425;DHT22;10873;51.132;16.848;2023-05-07T01:48:45;25.10;52.20
21425;DHT22;10873;51.132;16.848;2023-05-07T01:51:11;25.20;52.20
21425;DHT22;10873;51.132;16.848;2023-05-07T01:53:38;25.10;52.10
21425;DHT22;10873;51.132;16.848;2023-05-07T01:56:05;25.10;52.10
21425;DHT22;10873;51.132;16.848;2023-05-07T01:58:33;25.10;52.20
21425;DHT22;10873;51.132;16.848;2023-05-07T02:00:59;25.10;52.20
21425;DHT22;10873;51.132;16.848;2023-05-07T02:03:25;25.00;52.20
21425;DHT22;10873;51.132;16.848;2023-05-07T02:05:51;25.10;52.20
21425;DHT22;10873;51.132;16.848;2023-05-07T02:08:17;25.00;52.20
21425;DHT22;10873;51.132;16.848;2023-05-07T02:10:43;25.00;52.20
21425;DHT22;10873;51.132;16.848;2023-05-07T02:13:09;25.00;52.20
21425;DHT22;10873;51.132;16.848;2023-05-07T02:15:36;25.00;52.20
21425;DHT22;10873;51.132;16.848;2023-05-07T02:18:04;25.00;52.20
21425;DHT22;10873;51.132;16.848;2023-05-07T02:20:32;25.00;52.20
21425;DHT22;10873;51.132;16.848;2023-05-07T02:22:58;25.00;52.20
21425;DHT22;10873;51.132;16.848;2023-05-07T02:25:24;25.00;52.10
21425;DHT22;10873;51.132;16.848;2023-05-07T02:27:50;25.00;52.10
21425;DHT22;10873;51.132;16.848;2023-05-07T02:30:16;25.00;52.10
21425;DHT22;10873;51.132;16.848;2023-05-07T02:32:44;24.90;52.00
21425;DHT22;10873;51.132;16.848;2023-05-07T02:35:10;24.90;52.00
21425;DHT22;10873;51.132;16.848;2023-05-07T02:37:36;24.90;52.00
21425;DHT22;10873;51.132;16.848;2023-05-07T02:40:02;24.90;52.00
21425;DHT22;10873;51.132;16.848;2023-05-07T02:42:30;24.90;52.00
21425;DHT22;10873;51.132;16.848;2023-05-07T02:44:56;24.90;52.00
21425;DHT22;10873;51.132;16.848;2023-05-07T02:47:22;24.90;52.00
21425;DHT22;10873;51.132;16.848;2023-05-07T02:49:49;24.90;52.00
21425;DHT22;10873;51.132;16.848;2023-05-07T02:52:15;24.90;52.00
21425;DHT22;10873;51.132;16.848;2023-05-07T02:54:41;24.90;52.10
21425;DHT22;10873;51.132;16.848;2023-05-07T02:57:07;24.90;52.10
21425;DHT22;10873;51.132;16.848;2023-05-07T02:59:33;24.80;52.00
21425;DHT22;10873;51.132;16.848;2023-05-07T03:01:59;24.80;52.00
21425;DHT22;10873;51.132;16.848;2023-05-07T03:04:25;24.90;52.10
21425;DHT22;10873;51.132;16.848;2023-05-07T03:06:53;24.80;52.10
21425;DHT22;10873;51.132;16.848;2023-05-07T03:09:19;24.80;52.10
21425;DHT22;10873;51.132;16.848;2023-05-07T03:11:45;24.80;52.10
21425;DHT22;10873;51.132;16.848;2023-05-07T03:14:11;24.80;52.10
21425;DHT22;10873;51.132;16.848;2023-05-07T03:16:38;24.80;52.10
21425;DHT22;10873;51.132;16.848;2023-05-07T03:19:04;24.80;52.10
21425;DHT22;10873;51.132;16.848;2023-05-07T03:21:30;24.80;52.10
21425;DHT22;10873;51.132;16.848;2023-05-07T03:23:57;24.80;52.10
21425;DHT22;10873;51.132;16.848;2023-05-07T03:26:23;24.80;52.10
21425;DHT22;10873;51.132;16.848;2023-05-07T03:28:49;24.80;52.10
21425;DHT22;10873;51.132;16.848;2023-05-07T03:31:15;24.80;52.10
21425;DHT22;10873;51.132;16.848;2023-05-07T03:33:50;24.80;52.10
21425;DHT22;10873;51.132;16.848;2023-05-07T03:36:17;24.70;52.10
21425;DHT22;10873;51.132;16.848;2023-05-07T03:38:42;24.80;52.20
21425;DHT22;10873;51.132;16.848;2023-05-07T03:41:10;24.70;52.20
21425;DHT22;10873;51.132;16.848;2023-05-07T03:43:36;24.70;52.20
21425;DHT22;10873;51.132;16.848;2023-05-07T03:46:02;24.70;52.20
21425;DHT22;10873;51.132;16.848;2023-05-07T03:48:28;24.70;52.20
21425;DHT22;10873;51.132;16.848;2023-05-07T03:50:55;24.70;52.20
21425;DHT22;10873;51.132;16.848;2023-05-07T03:53:21;24.70;52.20
21425;DHT22;10873;51.132;16.848;2023-05-07T03:55:47;24.70;52.20
21425;DHT22;10873;51.132;16.848;2023-05-07T03:58:14;24.70;52.30
21425;DHT22;10873;51.132;16.848;2023-05-07T04:00:41;24.70;52.90
21425;DHT22;10873;51.132;16.848;2023-05-07T04:03:07;24.70;52.30
21425;DHT22;10873;51.132;16.848;2023-05-07T04:05:33;24.70;52.30
21425;DHT22;10873;51.132;16.848;2023-05-07T04:08:00;24.60;52.20
21425;DHT22;10873;51.132;16.848;2023-05-07T04:10:26;24.70;52.30
21425;DHT22;10873;51.132;16.848;2023-05-07T04:12:53;24.60;53.00
21425;DHT22;10873;51.132;16.848;2023-05-07T04:15:21;24.60;52.30
21425;DHT22;10873;51.132;16.848;2023-05-07T04:17:47;24.60;52.20
21425;DHT22;10873;51.132;16.848;2023-05-07T04:20:15;24.60;52.20
21425;DHT22;10873;51.132;16.848;2023-05-07T04:22:42;24.60;52.20
21425;DHT22;10873;51.132;16.848;2023-05-07T04:25:09;24.60;52.20
21425;DHT22;10873;51.132;16.848;2023-05-07T04:27:35;24.60;52.20
21425;DHT22;10873;51.132;16.848;2023-05-07T04:30:02;24.60;52.10
21425;DHT22;10873;51.132;16.848;2023-05-07T04:32:29;24.60;52.10
21425;DHT22;10873;51.132;16.848;2023-05-07T04:34:55;24.60;52.10
21425;DHT22;10873;51.132;16.848;2023-05-07T04:37:21;24.60;52.10
21425;DHT22;10873;51.132;16.848;2023-05-07T04:39:48;24.60;52.10
21425;DHT22;10873;51.132;16.848;2023-05-07T04:42:14;24.60;52.10
21425;DHT22;10873;51.132;16.848;2023-05-07T04:44:41;24.60;52.10
21425;DHT22;10873;51.132;16.848;2023-05-07T04:47:07;24.60;52.10
21425;DHT22;10873;51.132;16.848;2023-05-07T04:49:34;24.50;52.10
21425;DHT22;10873;51.132;16.848;2023-05-07T04:52:00;24.50;52.10
21425;DHT22;10873;51.132;16.848;2023-05-07T04:54:27;24.50;52.10
21425;DHT22;10873;51.132;16.848;2023-05-07T04:56:53;24.50;52.10
21425;DHT22;10873;51.132;16.848;2023-05-07T04:59:19;24.60;52.10
21425;DHT22;10873;51.132;16.848;2023-05-07T05:01:45;24.50;52.00
21425;DHT22;10873;51.132;16.848;2023-05-07T05:04:11;24.50;52.00
21425;DHT22;10873;51.132;16.848;2023-05-07T05:06:39;24.60;52.10
21425;DHT22;10873;51.132;16.848;2023-05-07T05:09:05;24.50;52.10
21425;DHT22;10873;51.132;16.848;2023-05-07T05:11:31;24.50;52.10
21425;DHT22;10873;51.132;16.848;2023-05-07T05:13:58;24.50;52.00
21425;DHT22;10873;51.132;16.848;2023-05-07T05:16:24;24.50;52.00
21425;DHT22;10873;51.132;16.848;2023-05-07T05:18:51;24.50;52.00
21425;DHT22;10873;51.132;16.848;2023-05-07T05:21:19;24.50;52.10
21425;DHT22;10873;51.132;16.848;2023-05-07T05:23:47;24.60;52.10
21425;DHT22;10873;51.132;16.848;2023-05-07T05:26:13;24.60;52.10
21425;DHT22;10873;51.132;16.848;2023-05-07T05:28:39;24.50;52.00
21425;DHT22;10873;51.132;16.848;2023-05-07T05:31:05;24.50;52.00
21425;DHT22;10873;51.132;16.848;2023-05-07T05:33:31;24.60;52.00
21425;DHT22;10873;51.132;16.848;2023-05-07T05:35:57;24.50;52.00
21425;DHT22;10873;51.132;16.848;2023-05-07T05:38:23;24.50;51.90
21425;DHT22;10873;51.132;16.848;2023-05-07T05:40:51;24.50;51.90
21425;DHT22;10873;51.132;16.848;2023-05-07T05:43:17;24.50;51.90
21425;DHT22;10873;51.132;16.848;2023-05-07T05:45:43;24.50;52.00
21425;DHT22;10873;51.132;16.848;2023-05-07T05:48:09;24.50;51.90
21425;DHT22;10873;51.132;16.848;2023-05-07T05:50:35;24.50;51.90
21425;DHT22;10873;51.132;16.848;2023-05-07T05:53:02;24.50;51.90
21425;DHT22;10873;51.132;16.848;2023-05-07T05:55:28;24.60;51.90
21425;DHT22;10873;51.132;16.848;2023-05-07T05:57:56;24.50;51.90
21425;DHT22;10873;51.132;16.848;2023-05-07T06:00:22;24.50;52.20
21425;DHT22;10873;51.132;16.848;2023-05-07T06:02:48;24.50;51.80
21425;DHT22;10873;51.132;16.848;2023-05-07T06:05:14;24.50;51.90
21425;DHT22;10873;51.132;16.848;2023-05-07T06:07:40;24.50;51.80
21425;DHT22;10873;51.132;16.848;2023-05-07T06:10:07;24.50;51.80
21425;DHT22;10873;51.132;16.848;2023-05-07T06:12:33;24.50;51.90
21425;DHT22;10873;51.132;16.848;2023-05-07T06:15:01;24.50;51.90
21425;DHT22;10873;51.132;16.848;2023-05-07T06:17:27;24.50;51.90
21425;DHT22;10873;51.132;16.848;2023-05-07T06:19:53;24.50;51.80
21425;DHT22;10873;51.132;16.848;2023-05-07T06:22:19;24.50;51.80
21425;DHT22;10873;51.132;16.848;2023-05-07T06:24:45;24.50;51.70
21425;DHT22;10873;51.132;16.848;2023-05-07T06:27:12;24.50;51.70
21425;DHT22;10873;51.132;16.848;2023-05-07T06:29:37;24.50;51.70
21425;DHT22;10873;51.132;16.848;2023-05-07T06:32:08;24.50;51.60
21425;DHT22;10873;51.132;16.848;2023-05-07T06:34:34;24.50;51.60
21425;DHT22;10873;51.132;16.848;2023-05-07T06:37:00;24.50;52.00
21425;DHT22;10873;51.132;16.848;2023-05-07T06:39:26;24.50;54.80
21425;DHT22;10873;51.132;16.848;2023-05-07T06:41:53;24.50;54.30
21425;DHT22;10873;51.132;16.848;2023-05-07T06:44:19;24.50;54.30
21425;DHT22;10873;51.132;16.848;2023-05-07T06:46:45;24.50;54.20
21425;DHT22;10873;51.132;16.848;2023-05-07T06:49:13;24.50;54.30
21425;DHT22;10873;51.132;16.848;2023-05-07T06:51:39;24.50;54.50
21425;DHT22;10873;51.132;16.848;2023-05-07T06:54:05;24.50;54.80
21425;DHT22;10873;51.132;16.848;2023-05-07T06:56:32;24.50;55.10
21425;DHT22;10873;51.132;16.848;2023-05-07T06:59:02;24.50;55.50
21425;DHT22;10873;51.132;16.848;2023-05-07T07:01:28;24.60;61.10
21425;DHT22;10873;51.132;16.848;2023-05-07T07:03:54;24.80;62.50
21425;DHT22;10873;51.132;16.848;2023-05-07T07:06:22;25.20;62.50
21425;DHT22;10873;51.132;16.848;2023-05-07T07:08:48;25.40;62.40
21425;DHT22;10873;51.132;16.848;2023-05-07T07:11:15;25.70;62.10
21425;DHT22;10873;51.132;16.848;2023-05-07T07:13:41;26.00;61.50
21425;DHT22;10873;51.132;16.848;2023-05-07T07:16:08;26.20;61.90
21425;DHT22;10873;51.132;16.848;2023-05-07T07:18:34;26.50;60.90
21425;DHT22;10873;51.132;16.848;2023-05-07T07:21:01;26.70;61.40
21425;DHT22;10873;51.132;16.848;2023-05-07T07:23:29;26.90;60.90
21425;DHT22;10873;51.132;16.848;2023-05-07T07:25:55;27.10;60.10
21425;DHT22;10873;51.132;16.848;2023-05-07T07:28:21;27.30;59.20
21425;DHT22;10873;51.132;16.848;2023-05-07T07:30:47;27.50;58.40
21425;DHT22;10873;51.132;16.848;2023-05-07T07:33:13;27.60;57.90
21425;DHT22;10873;51.132;16.848;2023-05-07T07:35:40;27.80;57.10
21425;DHT22;10873;51.132;16.848;2023-05-07T07:38:06;28.00;55.50
21425;DHT22;10873;51.132;16.848;2023-05-07T07:40:34;28.10;55.00
21425;DHT22;10873;51.132;16.848;2023-05-07T07:43:00;28.30;54.50
21425;DHT22;10873;51.132;16.848;2023-05-07T07:45:27;28.40;54.30
21425;DHT22;10873;51.132;16.848;2023-05-07T07:47:53;28.60;54.10
21425;DHT22;10873;51.132;16.848;2023-05-07T07:50:19;28.70;53.90
21425;DHT22;10873;51.132;16.848;2023-05-07T07:52:45;28.90;53.50
21425;DHT22;10873;51.132;16.848;2023-05-07T07:55:11;29.00;53.20
21425;DHT22;10873;51.132;16.848;2023-05-07T07:57:39;29.20;53.10
21425;DHT22;10873;51.132;16.848;2023-05-07T08:00:07;29.30;52.70
21425;DHT22;10873;51.132;16.848;2023-05-07T08:02:33;29.50;52.60
21425;DHT22;10873;51.132;16.848;2023-05-07T08:05:00;29.60;53.00
21425;DHT22;10873;51.132;16.848;2023-05-07T08:07:25;29.70;51.90
21425;DHT22;10873;51.132;16.848;2023-05-07T08:09:52;29.50;51.40
21425;DHT22;10873;51.132;16.848;2023-05-07T08:12:18;29.30;52.70
21425;DHT22;10873;51.132;16.848;2023-05-07T08:14:46;29.00;51.80
21425;DHT22;10873;51.132;16.848;2023-05-07T08:17:11;28.80;51.90
21425;DHT22;10873;51.132;16.848;2023-05-07T08:19:38;28.50;51.90
21425;DHT22;10873;51.132;16.848;2023-05-07T08:22:04;28.30;51.70
21425;DHT22;10873;51.132;16.848;2023-05-07T08:24:31;28.10;51.30
21425;DHT22;10873;51.132;16.848;2023-05-07T08:26:57;27.90;51.10
21425;DHT22;10873;51.132;16.848;2023-05-07T08:29:23;27.60;50.30
21425;DHT22;10873;51.132;16.848;2023-05-07T08:31:51;27.40;49.50
21425;DHT22;10873;51.132;16.848;2023-05-07T08:34:17;27.10;50.70
21425;DHT22;10873;51.132;16.848;2023-05-07T08:36:43;26.80;52.00
21425;DHT22;10873;51.132;16.848;2023-05-07T08:39:09;26.60;52.70
21425;DHT22;10873;51.132;16.848;2023-05-07T08:41:35;26.60;52.30
21425;DHT22;10873;51.132;16.848;2023-05-07T08:44:03;26.50;54.10
21425;DHT22;10873;51.132;16.848;2023-05-07T08:46:32;26.50;55.40
21425;DHT22;10873;51.132;16.848;2023-05-07T08:48:59;26.60;56.20
21425;DHT22;10873;51.132;16.848;2023-05-07T08:51:25;26.60;56.10
21425;DHT22;10873;51.132;16.848;2023-05-07T08:53:53;26.70;55.90
21425;DHT22;10873;51.132;16.848;2023-05-07T08:56:19;26.70;55.80
21425;DHT22;10873;51.132;16.848;2023-05-07T08:58:46;26.80;55.70
21425;DHT22;10873;51.132;16.848;2023-05-07T09:01:14;26.90;55.50
21425;DHT22;10873;51.132;16.848;2023-05-07T09:03:42;26.90;55.20
21425;DHT22;10873;51.132;16.848;2023-05-07T09:06:11;27.00;54.70
21425;DHT22;10873;51.132;16.848;2023-05-07T09:08:37;27.00;55.70
21425;DHT22;10873;51.132;16.848;2023-05-07T09:11:03;27.00;54.90
21425;DHT22;10873;51.132;16.848;2023-05-07T09:13:29;26.90;56.00
21425;DHT22;10873;51.132;16.848;2023-05-07T09:15:56;27.00;55.80
21425;DHT22;10873;51.132;16.848;2023-05-07T09:18:23;27.00;53.30
21425;DHT22;10873;51.132;16.848;2023-05-07T09:20:49;26.80;49.80
21425;DHT22;10873;51.132;16.848;2023-05-07T09:23:18;26.60;49.10
21425;DHT22;10873;51.132;16.848;2023-05-07T09:25:44;26.30;48.60
21425;DHT22;10873;51.132;16.848;2023-05-07T09:28:10;26.00;49.00
21425;DHT22;10873;51.132;16.848;2023-05-07T09:30:36;25.70;49.50
21425;DHT22;10873;51.132;16.848;2023-05-07T09:33:03;25.50;49.60
21425;DHT22;10873;51.132;16.848;2023-05-07T09:35:30;25.30;49.30
21425;DHT22;10873;51.132;16.848;2023-05-07T09:37:58;25.10;49.60
21425;DHT22;10873;51.132;16.848;2023-05-07T09:40:27;24.90;50.40
21425;DHT22;10873;51.132;16.848;2023-05-07T09:42:54;24.80;50.00
21425;DHT22;10873;51.132;16.848;2023-05-07T09:45:22;24.60;49.80
21425;DHT22;10873;51.132;16.848;2023-05-07T09:47:54;24.50;50.50
21425;DHT22;10873;51.132;16.848;2023-05-07T09:50:22;24.50;50.70
21425;DHT22;10873;51.132;16.848;2023-05-07T09:52:52;24.40;52.10
21425;DHT22;10873;51.132;16.848;2023-05-07T09:55:18;24.60;53.10
21425;DHT22;10873;51.132;16.848;2023-05-07T09:57:47;24.80;53.00
21425;DHT22;10873;51.132;16.848;2023-05-07T10:00:14;24.80;52.60
21425;DHT22;10873;51.132;16.848;2023-05-07T10:02:42;24.80;52.80
21425;DHT22;10873;51.132;16.848;2023-05-07T10:05:14;24.80;52.60
21425;DHT22;10873;51.132;16.848;2023-05-07T10:07:41;24.70;52.50
21425;DHT22;10873;51.132;16.848;2023-05-07T10:10:07;24.60;52.80
21425;DHT22;10873;51.132;16.848;2023-05-07T10:12:35;24.60;53.00
21425;DHT22;10873;51.132;16.848;2023-05-07T10:15:07;24.60;52.40
21425;DHT22;10873;51.132;16.848;2023-05-07T10:17:35;24.50;51.50
21425;DHT22;10873;51.132;16.848;2023-05-07T10:20:02;24.50;50.90
21425;DHT22;10873;51.132;16.848;2023-05-07T10:22:30;24.50;50.60
21425;DHT22;10873;51.132;16.848;2023-05-07T10:24:59;24.40;50.30
21425;DHT22;10873;51.132;16.848;2023-05-07T10:27:29;24.40;50.20
21425;DHT22;10873;51.132;16.848;2023-05-07T10:30:10;24.30;50.30
21425;DHT22;10873;51.132;16.848;2023-05-07T10:32:40;24.30;50.30
21425;DHT22;10873;51.132;16.848;2023-05-07T10:35:11;24.20;49.90
21425;DHT22;10873;51.132;16.848;2023-05-07T10:37:40;24.20;49.90
21425;DHT22;10873;51.132;16.848;2023-05-07T10:40:07;24.10;49.70
21425;DHT22;10873;51.132;16.848;2023-05-07T10:42:34;24.00;49.80
21425;DHT22;10873;51.132;16.848;2023-05-07T10:45:13;24.00;53.40
21425;DHT22;10873;51.132;16.848;2023-05-07T10:48:07;24.00;53.50
21425;DHT22;10873;51.132;16.848;2023-05-07T10:50:36;24.10;53.70
21425;DHT22;10873;51.132;16.848;2023-05-07T10:53:25;24.10;54.10
21425;DHT22;10873;51.132;16.848;2023-05-07T10:56:23;24.20;54.80
21425;DHT22;10873;51.132;16.848;2023-05-07T10:58:50;24.20;55.20
21425;DHT22;10873;51.132;16.848;2023-05-07T11:04:21;24.80;61.20
21425;DHT22;10873;51.132;16.848;2023-05-07T11:07:23;25.20;61.60
21425;DHT22;10873;51.132;16.848;2023-05-07T11:10:01;25.60;61.40
21425;DHT22;10873;51.132;16.848;2023-05-07T11:12:54;26.00;61.60
21425;DHT22;10873;51.132;16.848;2023-05-07T11:15:38;26.30;61.90
21425;DHT22;10873;51.132;16.848;2023-05-07T11:18:06;26.60;62.00
21425;DHT22;10873;51.132;16.848;2023-05-07T11:21:00;26.90;61.90
21425;DHT22;10873;51.132;16.848;2023-05-07T11:23:56;27.10;62.00
21425;DHT22;10873;51.132;16.848;2023-05-07T11:26:22;27.40;61.80
21425;DHT22;10873;51.132;16.848;2023-05-07T11:28:49;27.60;61.80
21425;DHT22;10873;51.132;16.848;2023-05-07T11:31:21;27.70;61.50
21425;DHT22;10873;51.132;16.848;2023-05-07T11:33:49;27.90;61.50
21425;DHT22;10873;51.132;16.848;2023-05-07T11:36:16;28.10;61.20
21425;DHT22;10873;51.132;16.848;2023-05-07T11:38:43;28.30;61.10
21425;DHT22;10873;51.132;16.848;2023-05-07T11:41:09;28.40;60.60
21425;DHT22;10873;51.132;16.848;2023-05-07T11:43:35;28.60;60.00
21425;DHT22;10873;51.132;16.848;2023-05-07T11:46:06;28.70;59.30
21425;DHT22;10873;51.132;16.848;2023-05-07T11:48:32;28.80;58.80
21425;DHT22;10873;51.132;16.848;2023-05-07T11:51:02;29.00;58.20
21425;DHT22;10873;51.132;16.848;2023-05-07T11:53:36;29.10;57.70
21425;DHT22;10873;51.132;16.848;2023-05-07T11:56:06;29.20;57.10
21425;DHT22;10873;51.132;16.848;2023-05-07T11:58:32;29.30;56.90
21425;DHT22;10873;51.132;16.848;2023-05-07T12:00:58;29.50;56.20
21425;DHT22;10873;51.132;16.848;2023-05-07T12:03:25;29.50;54.30
21425;DHT22;10873;51.132;16.848;2023-05-07T12:05:51;29.50;53.50
21425;DHT22;10873;51.132;16.848;2023-05-07T12:08:20;29.50;53.50
21425;DHT22;10873;51.132;16.848;2023-05-07T12:10:48;29.50;53.10
21425;DHT22;10873;51.132;16.848;2023-05-07T12:13:14;29.50;52.90
21425;DHT22;10873;51.132;16.848;2023-05-07T12:15:41;29.50;52.80
21425;DHT22;10873;51.132;16.848;2023-05-07T12:18:07;29.50;52.70
21425;DHT22;10873;51.132;16.848;2023-05-07T12:20:34;29.60;52.80
21425;DHT22;10873;51.132;16.848;2023-05-07T12:23:01;29.70;52.70
21425;DHT22;10873;51.132;16.848;2023-05-07T12:25:31;29.80;52.70
21425;DHT22;10873;51.132;16.848;2023-05-07T12:27:57;29.90;52.60
21425;DHT22;10873;51.132;16.848;2023-05-07T12:30:24;30.10;52.50
21425;DHT22;10873;51.132;16.848;2023-05-07T12:32:53;30.10;51.50
21425;DHT22;10873;51.132;16.848;2023-05-07T12:35:26;30.00;51.60
21425;DHT22;10873;51.132;16.848;2023-05-07T12:37:54;29.80;51.20
21425;DHT22;10873;51.132;16.848;2023-05-07T12:40:21;29.40;51.80
21425;DHT22;10873;51.132;16.848;2023-05-07T12:42:53;29.20;52.10
21425;DHT22;10873;51.132;16.848;2023-05-07T12:45:21;28.90;52.00
21425;DHT22;10873;51.132;16.848;2023-05-07T12:47:47;28.70;51.90
21425;DHT22;10873;51.132;16.848;2023-05-07T12:50:13;28.50;51.50
21425;DHT22;10873;51.132;16.848;2023-05-07T12:52:40;28.30;51.20
21425;DHT22;10873;51.132;16.848;2023-05-07T12:55:07;28.10;50.70
21425;DHT22;10873;51.132;16.848;2023-05-07T12:57:38;28.00;50.30
21425;DHT22;10873;51.132;16.848;2023-05-07T13:00:07;27.80;49.70
21425;DHT22;10873;51.132;16.848;2023-05-07T13:02:33;27.70;49.60
21425;DHT22;10873;51.132;16.848;2023-05-07T13:05:00;27.60;49.70
21425;DHT22;10873;51.132;16.848;2023-05-07T13:07:26;27.50;49.30
21425;DHT22;10873;51.132;16.848;2023-05-07T13:09:53;27.40;49.00
21425;DHT22;10873;51.132;16.848;2023-05-07T13:12:19;27.30;48.90
21425;DHT22;10873;51.132;16.848;2023-05-07T13:14:45;27.30;48.80
21425;DHT22;10873;51.132;16.848;2023-05-07T13:17:12;27.20;52.50
21425;DHT22;10873;51.132;16.848;2023-05-07T13:19:39;27.10;53.00
21425;DHT22;10873;51.132;16.848;2023-05-07T13:22:05;27.10;53.50
21425;DHT22;10873;51.132;16.848;2023-05-07T13:24:31;27.10;54.50
21425;DHT22;10873;51.132;16.848;2023-05-07T13:26:57;27.10;57.40
21425;DHT22;10873;51.132;16.848;2023-05-07T13:29:23;27.30;58.30
21425;DHT22;10873;51.132;16.848;2023-05-07T13:31:56;27.60;59.30
21425;DHT22;10873;51.132;16.848;2023-05-07T13:34:23;27.90;59.50
21425;DHT22;10873;51.132;16.848;2023-05-07T13:36:49;28.20;59.80
21425;DHT22;10873;51.132;16.848;2023-05-07T13:39:16;28.50;60.40
21425;DHT22;10873;51.132;16.848;2023-05-07T13:41:42;28.70;60.40
21425;DHT22;10873;51.132;16.848;2023-05-07T13:44:09;28.90;60.50
21425;DHT22;10873;51.132;16.848;2023-05-07T13:46:35;29.10;60.80
21425;DHT22;10873;51.132;16.848;2023-05-07T13:49:01;29.40;61.30
21425;DHT22;10873;51.132;16.848;2023-05-07T13:51:29;29.50;60.80
21425;DHT22;10873;51.132;16.848;2023-05-07T13:53:55;29.70;60.70
21425;DHT22;10873;51.132;16.848;2023-05-07T13:56:21;29.80;58.90
21425;DHT22;10873;51.132;16.848;2023-05-07T13:58:47;29.70;57.20
21425;DHT22;10873;51.132;16.848;2023-05-07T14:01:13;29.50;58.50
21425;DHT22;10873;51.132;16.848;2023-05-07T14:03:39;29.40;59.70
21425;DHT22;10873;51.132;16.848;2023-05-07T14:06:05;29.40;60.10
21425;DHT22;10873;51.132;16.848;2023-05-07T14:08:33;29.60;59.80
21425;DHT22;10873;51.132;16.848;2023-05-07T14:10:58;29.70;59.40
21425;DHT22;10873;51.132;16.848;2023-05-07T14:13:26;29.90;58.80
21425;DHT22;10873;51.132;16.848;2023-05-07T14:15:52;30.10;58.00
21425;DHT22;10873;51.132;16.848;2023-05-07T14:18:18;30.10;54.20
21425;DHT22;10873;51.132;16.848;2023-05-07T14:20:44;30.10;51.70
21425;DHT22;10873;51.132;16.848;2023-05-07T14:23:12;30.00;50.50
21425;DHT22;10873;51.132;16.848;2023-05-07T14:25:39;29.90;50.10
21425;DHT22;10873;51.132;16.848;2023-05-07T14:28:06;29.80;49.20
21425;DHT22;10873;51.132;16.848;2023-05-07T14:30:32;29.70;48.30
21425;DHT22;10873;51.132;16.848;2023-05-07T14:32:58;29.60;47.80
21425;DHT22;10873;51.132;16.848;2023-05-07T14:35:24;29.50;46.90
21425;DHT22;10873;51.132;16.848;2023-05-07T14:37:50;29.40;46.10
21425;DHT22;10873;51.132;16.848;2023-05-07T14:40:16;29.30;46.60
21425;DHT22;10873;51.132;16.848;2023-05-07T14:42:44;29.20;46.50
21425;DHT22;10873;51.132;16.848;2023-05-07T14:45:10;29.10;46.60
21425;DHT22;10873;51.132;16.848;2023-05-07T14:47:36;29.10;46.60
21425;DHT22;10873;51.132;16.848;2023-05-07T14:50:03;29.00;46.40
21425;DHT22;10873;51.132;16.848;2023-05-07T14:52:29;29.00;46.50
21425;DHT22;10873;51.132;16.848;2023-05-07T14:54:55;28.90;46.80
21425;DHT22;10873;51.132;16.848;2023-05-07T14:57:21;28.60;45.60
21425;DHT22;10873;51.132;16.848;2023-05-07T14:59:48;28.40;46.00
21425;DHT22;10873;51.132;16.848;2023-05-07T15:02:15;28.10;46.70
21425;DHT22;10873;51.132;16.848;2023-05-07T15:04:41;27.90;46.50
21425;DHT22;10873;51.132;16.848;2023-05-07T15:07:11;27.70;46.70
21425;DHT22;10873;51.132;16.848;2023-05-07T15:09:37;27.40;46.60
21425;DHT22;10873;51.132;16.848;2023-05-07T15:12:03;27.20;46.10
21425;DHT22;10873;51.132;16.848;2023-05-07T15:14:29;27.10;45.70
21425;DHT22;10873;51.132;16.848;2023-05-07T15:16:57;26.90;45.40
21425;DHT22;10873;51.132;16.848;2023-05-07T15:19:23;26.70;45.10